Portada
METAR-TAF:

METAR-TAF

Aeroports :

Balkhash, Kazakhstan

latitud: 46-53-38N, longitud: 075-00-19E, altitud: 440 m

Observació

L'informe es va fer fa 4 hores i 22 minuts, a les 11:00 UTC
Vent calma
Temperatura -6°C
Humitat 93%
Pressió 1020 hPa
Visibilitat: 4600 m
Cel cobert a una alçada de 600 ft
(lleu) gebradora, plugim

METAR: UAAH 201100Z 00000MPS 4600 -FZDZ OVC006 M06/M07 Q1020 R05/790228 NOSIG RMK QBB200 QFE727/0970

Hora: 21:22 (15:22 UTC)

Pronòstic

L'informe es va fer fa 7 hores i 21 minuts, a les 08:01 UTC
Pronòstic vàlid del 20 a les 09 UTC al 20 a les 18 UTC
Vent 6 kt del Est
Visibilitat: 6000 m
Núvols disperses a una alçada de 1000 ft
Cel ennuvolat a una alçada de 6000 ft
Temporalment
l' 20 a les 09 UTC al 20 a les 12 UTC
Visibilitat: 2000 m
Cel ennuvolat a una alçada de 1000 ft, Cumulonimbus.
xàfecs de neu

TAF: UAAH 200801Z 2009/2018 08003MPS 6000 SCT010 BKN060 TEMPO 2009/2012 2000 SHSN BKN010CB

Observacions i pronòstics meteorològics de més de 4000 aeroports (METAR i TAF).

Les estacions disponibles són els punts grocs i vermells al mapa.

Posi el ratolí al punt desitjat per veure el nom de l'estació.

Feu clic per veure les observacions i els pronòstics meteorològics.

Per canviar el mapa: feu clic els botons verds amb una creu de color negre per apropar; al botó verd amb un guió per allunyar la imatge; o en les fletxes verdes per a mapes adjacents.


METAR-TAF: